sensor_id;sensor_type;location;lat;lon;timestamp;P1;durP1;ratioP1;P2;durP2;ratioP2
4486;SDS011;2256;48.740;9.106;2022-10-17T00:02:22;13.73;;;3.57;;
4486;SDS011;2256;48.740;9.106;2022-10-17T00:04:49;7.60;;;2.50;;
4486;SDS011;2256;48.740;9.106;2022-10-17T00:07:17;6.83;;;2.90;;
4486;SDS011;2256;48.740;9.106;2022-10-17T00:09:44;4.10;;;3.00;;
4486;SDS011;2256;48.740;9.106;2022-10-17T00:12:10;5.90;;;2.93;;
4486;SDS011;2256;48.740;9.106;2022-10-17T00:14:37;4.80;;;3.03;;
4486;SDS011;2256;48.740;9.106;2022-10-17T00:17:04;6.43;;;2.67;;
4486;SDS011;2256;48.740;9.106;2022-10-17T00:19:31;14.73;;;3.27;;
4486;SDS011;2256;48.740;9.106;2022-10-17T00:21:58;14.80;;;2.87;;
4486;SDS011;2256;48.740;9.106;2022-10-17T00:24:26;33.43;;;3.93;;
4486;SDS011;2256;48.740;9.106;2022-10-17T00:26:52;3.30;;;2.70;;
4486;SDS011;2256;48.740;9.106;2022-10-17T00:29:19;7.43;;;2.83;;
4486;SDS011;2256;48.740;9.106;2022-10-17T00:31:46;7.90;;;3.40;;
4486;SDS011;2256;48.740;9.106;2022-10-17T00:34:13;6.27;;;3.17;;
4486;SDS011;2256;48.740;9.106;2022-10-17T00:36:39;6.47;;;3.43;;
4486;SDS011;2256;48.740;9.106;2022-10-17T00:39:07;8.43;;;2.97;;
4486;SDS011;2256;48.740;9.106;2022-10-17T00:41:35;9.20;;;3.27;;
4486;SDS011;2256;48.740;9.106;2022-10-17T00:44:03;5.90;;;3.03;;
4486;SDS011;2256;48.740;9.106;2022-10-17T00:46:32;7.73;;;3.10;;
4486;SDS011;2256;48.740;9.106;2022-10-17T00:49:01;3.73;;;2.93;;
4486;SDS011;2256;48.740;9.106;2022-10-17T00:51:32;7.70;;;3.00;;
4486;SDS011;2256;48.740;9.106;2022-10-17T00:54:00;7.50;;;3.20;;
4486;SDS011;2256;48.740;9.106;2022-10-17T00:56:28;9.77;;;3.57;;
4486;SDS011;2256;48.740;9.106;2022-10-17T00:58:57;6.00;;;3.40;;
4486;SDS011;2256;48.740;9.106;2022-10-17T01:01:24;9.57;;;3.57;;
4486;SDS011;2256;48.740;9.106;2022-10-17T01:03:51;4.07;;;3.10;;
4486;SDS011;2256;48.740;9.106;2022-10-17T01:06:17;8.20;;;2.97;;
4486;SDS011;2256;48.740;9.106;2022-10-17T01:08:44;3.80;;;2.90;;
4486;SDS011;2256;48.740;9.106;2022-10-17T01:11:14;5.03;;;2.87;;
4486;SDS011;2256;48.740;9.106;2022-10-17T01:13:48;4.60;;;2.80;;
4486;SDS011;2256;48.740;9.106;2022-10-17T01:16:21;8.60;;;3.20;;
4486;SDS011;2256;48.740;9.106;2022-10-17T01:19:00;6.07;;;3.87;;
4486;SDS011;2256;48.740;9.106;2022-10-17T01:21:43;6.50;;;2.93;;
4486;SDS011;2256;48.740;9.106;2022-10-17T01:27:26;7.10;;;2.80;;
4486;SDS011;2256;48.740;9.106;2022-10-17T01:30:08;4.50;;;3.33;;
4486;SDS011;2256;48.740;9.106;2022-10-17T01:33:02;6.00;;;3.00;;
4486;SDS011;2256;48.740;9.106;2022-10-17T01:35:36;8.40;;;2.90;;
4486;SDS011;2256;48.740;9.106;2022-10-17T01:38:07;4.10;;;3.17;;
4486;SDS011;2256;48.740;9.106;2022-10-17T01:40:36;14.43;;;3.13;;
4486;SDS011;2256;48.740;9.106;2022-10-17T01:43:08;4.63;;;3.17;;
4486;SDS011;2256;48.740;9.106;2022-10-17T01:45:41;4.20;;;2.40;;
4486;SDS011;2256;48.740;9.106;2022-10-17T01:48:15;6.43;;;2.70;;
4486;SDS011;2256;48.740;9.106;2022-10-17T01:50:45;9.43;;;3.23;;
4486;SDS011;2256;48.740;9.106;2022-10-17T01:53:18;11.20;;;4.23;;
4486;SDS011;2256;48.740;9.106;2022-10-17T01:55:49;6.33;;;2.70;;
4486;SDS011;2256;48.740;9.106;2022-10-17T01:58:19;4.10;;;3.13;;
4486;SDS011;2256;48.740;9.106;2022-10-17T02:00:50;4.37;;;3.03;;
4486;SDS011;2256;48.740;9.106;2022-10-17T02:03:19;5.80;;;3.07;;
4486;SDS011;2256;48.740;9.106;2022-10-17T02:05:47;8.23;;;3.30;;
4486;SDS011;2256;48.740;9.106;2022-10-17T02:08:23;4.50;;;2.60;;
4486;SDS011;2256;48.740;9.106;2022-10-17T02:10:52;5.00;;;3.20;;
4486;SDS011;2256;48.740;9.106;2022-10-17T02:13:25;7.00;;;3.13;;
4486;SDS011;2256;48.740;9.106;2022-10-17T02:16:07;12.73;;;3.13;;
4486;SDS011;2256;48.740;9.106;2022-10-17T02:18:46;4.23;;;3.10;;
4486;SDS011;2256;48.740;9.106;2022-10-17T02:21:27;7.83;;;2.97;;
4486;SDS011;2256;48.740;9.106;2022-10-17T02:24:00;4.80;;;3.07;;
4486;SDS011;2256;48.740;9.106;2022-10-17T02:26:33;10.03;;;3.67;;
4486;SDS011;2256;48.740;9.106;2022-10-17T02:29:05;9.77;;;3.37;;
4486;SDS011;2256;48.740;9.106;2022-10-17T02:31:39;10.33;;;3.57;;
4486;SDS011;2256;48.740;9.106;2022-10-17T02:34:12;12.33;;;2.70;;
4486;SDS011;2256;48.740;9.106;2022-10-17T02:36:42;7.20;;;3.20;;
4486;SDS011;2256;48.740;9.106;2022-10-17T02:39:12;9.53;;;3.20;;
4486;SDS011;2256;48.740;9.106;2022-10-17T02:41:41;14.60;;;3.07;;
4486;SDS011;2256;48.740;9.106;2022-10-17T02:44:09;7.83;;;3.50;;
4486;SDS011;2256;48.740;9.106;2022-10-17T02:46:37;17.73;;;3.60;;
4486;SDS011;2256;48.740;9.106;2022-10-17T02:49:06;12.73;;;3.23;;
4486;SDS011;2256;48.740;9.106;2022-10-17T02:51:41;14.90;;;3.27;;
4486;SDS011;2256;48.740;9.106;2022-10-17T02:54:11;10.83;;;3.53;;
4486;SDS011;2256;48.740;9.106;2022-10-17T02:56:45;10.20;;;3.87;;
4486;SDS011;2256;48.740;9.106;2022-10-17T02:59:16;12.93;;;3.10;;
4486;SDS011;2256;48.740;9.106;2022-10-17T03:01:46;17.90;;;2.90;;
4486;SDS011;2256;48.740;9.106;2022-10-17T03:04:15;5.73;;;2.90;;
4486;SDS011;2256;48.740;9.106;2022-10-17T03:06:44;6.40;;;3.47;;
4486;SDS011;2256;48.740;9.106;2022-10-17T03:09:13;8.67;;;3.37;;
4486;SDS011;2256;48.740;9.106;2022-10-17T03:11:39;8.00;;;3.07;;
4486;SDS011;2256;48.740;9.106;2022-10-17T03:14:06;12.10;;;2.87;;
4486;SDS011;2256;48.740;9.106;2022-10-17T03:16:33;7.03;;;3.27;;
4486;SDS011;2256;48.740;9.106;2022-10-17T03:19:00;3.00;;;2.70;;
4486;SDS011;2256;48.740;9.106;2022-10-17T03:21:27;14.23;;;3.70;;
4486;SDS011;2256;48.740;9.106;2022-10-17T03:23:55;10.43;;;3.03;;
4486;SDS011;2256;48.740;9.106;2022-10-17T03:26:22;6.43;;;3.93;;
4486;SDS011;2256;48.740;9.106;2022-10-17T03:28:49;9.27;;;3.20;;
4486;SDS011;2256;48.740;9.106;2022-10-17T03:31:16;18.03;;;5.43;;
4486;SDS011;2256;48.740;9.106;2022-10-17T03:33:43;14.20;;;3.70;;
4486;SDS011;2256;48.740;9.106;2022-10-17T03:36:10;6.77;;;3.60;;
4486;SDS011;2256;48.740;9.106;2022-10-17T03:38:38;9.60;;;3.43;;
4486;SDS011;2256;48.740;9.106;2022-10-17T03:41:07;4.90;;;3.60;;
4486;SDS011;2256;48.740;9.106;2022-10-17T03:43:34;13.60;;;3.13;;
4486;SDS011;2256;48.740;9.106;2022-10-17T03:46:01;8.90;;;3.63;;
4486;SDS011;2256;48.740;9.106;2022-10-17T03:48:29;19.23;;;4.20;;
4486;SDS011;2256;48.740;9.106;2022-10-17T03:50:57;17.03;;;4.00;;
4486;SDS011;2256;48.740;9.106;2022-10-17T03:53:25;15.83;;;4.20;;
4486;SDS011;2256;48.740;9.106;2022-10-17T03:55:51;7.60;;;3.87;;
4486;SDS011;2256;48.740;9.106;2022-10-17T03:58:20;9.73;;;4.30;;
4486;SDS011;2256;48.740;9.106;2022-10-17T04:00:48;15.03;;;4.47;;
4486;SDS011;2256;48.740;9.106;2022-10-17T04:03:14;11.07;;;3.80;;
4486;SDS011;2256;48.740;9.106;2022-10-17T04:05:41;10.83;;;4.30;;
4486;SDS011;2256;48.740;9.106;2022-10-17T04:08:08;8.27;;;4.90;;
4486;SDS011;2256;48.740;9.106;2022-10-17T04:10:35;6.93;;;3.60;;
4486;SDS011;2256;48.740;9.106;2022-10-17T04:13:01;9.87;;;3.97;;
4486;SDS011;2256;48.740;9.106;2022-10-17T04:15:31;17.60;;;4.07;;
4486;SDS011;2256;48.740;9.106;2022-10-17T04:17:58;6.20;;;3.93;;
4486;SDS011;2256;48.740;9.106;2022-10-17T04:20:25;9.00;;;4.57;;
4486;SDS011;2256;48.740;9.106;2022-10-17T04:22:52;24.93;;;4.33;;
4486;SDS011;2256;48.740;9.106;2022-10-17T04:25:19;11.13;;;4.50;;
4486;SDS011;2256;48.740;9.106;2022-10-17T04:27:45;6.57;;;3.83;;
4486;SDS011;2256;48.740;9.106;2022-10-17T04:30:13;6.17;;;4.07;;
4486;SDS011;2256;48.740;9.106;2022-10-17T04:32:41;13.80;;;3.80;;
4486;SDS011;2256;48.740;9.106;2022-10-17T04:35:08;8.10;;;3.80;;
4486;SDS011;2256;48.740;9.106;2022-10-17T04:37:34;10.43;;;4.60;;
4486;SDS011;2256;48.740;9.106;2022-10-17T04:40:01;6.60;;;3.97;;
4486;SDS011;2256;48.740;9.106;2022-10-17T04:42:28;23.33;;;4.03;;
4486;SDS011;2256;48.740;9.106;2022-10-17T04:44:55;6.37;;;4.03;;
4486;SDS011;2256;48.740;9.106;2022-10-17T04:47:22;14.63;;;3.70;;
4486;SDS011;2256;48.740;9.106;2022-10-17T04:49:50;7.70;;;4.13;;
4486;SDS011;2256;48.740;9.106;2022-10-17T04:52:17;15.30;;;4.40;;
4486;SDS011;2256;48.740;9.106;2022-10-17T04:54:44;12.60;;;4.03;;
4486;SDS011;2256;48.740;9.106;2022-10-17T04:57:11;8.77;;;4.13;;
4486;SDS011;2256;48.740;9.106;2022-10-17T04:59:38;20.63;;;4.70;;
4486;SDS011;2256;48.740;9.106;2022-10-17T05:02:04;11.53;;;4.53;;
4486;SDS011;2256;48.740;9.106;2022-10-17T05:04:38;11.20;;;4.00;;
4486;SDS011;2256;48.740;9.106;2022-10-17T05:07:04;13.83;;;4.33;;
4486;SDS011;2256;48.740;9.106;2022-10-17T05:09:31;10.30;;;3.90;;
4486;SDS011;2256;48.740;9.106;2022-10-17T05:11:58;22.63;;;4.00;;
4486;SDS011;2256;48.740;9.106;2022-10-17T05:14:25;6.53;;;3.90;;
4486;SDS011;2256;48.740;9.106;2022-10-17T05:16:52;4.60;;;3.80;;
4486;SDS011;2256;48.740;9.106;2022-10-17T05:19:18;12.00;;;4.13;;
4486;SDS011;2256;48.740;9.106;2022-10-17T05:21:46;10.70;;;3.70;;
4486;SDS011;2256;48.740;9.106;2022-10-17T05:24:13;4.70;;;3.93;;
4486;SDS011;2256;48.740;9.106;2022-10-17T05:26:41;10.73;;;3.80;;
4486;SDS011;2256;48.740;9.106;2022-10-17T05:29:07;5.80;;;3.77;;
4486;SDS011;2256;48.740;9.106;2022-10-17T05:31:35;8.00;;;3.00;;
4486;SDS011;2256;48.740;9.106;2022-10-17T05:34:02;6.43;;;3.03;;
4486;SDS011;2256;48.740;9.106;2022-10-17T05:36:28;6.37;;;3.73;;
4486;SDS011;2256;48.740;9.106;2022-10-17T05:38:56;5.80;;;3.83;;
4486;SDS011;2256;48.740;9.106;2022-10-17T05:41:23;3.80;;;3.23;;
4486;SDS011;2256;48.740;9.106;2022-10-17T05:43:50;6.90;;;3.63;;
4486;SDS011;2256;48.740;9.106;2022-10-17T05:46:17;14.83;;;3.87;;
4486;SDS011;2256;48.740;9.106;2022-10-17T05:48:44;7.23;;;3.63;;
4486;SDS011;2256;48.740;9.106;2022-10-17T05:51:11;10.70;;;3.67;;
4486;SDS011;2256;48.740;9.106;2022-10-17T05:53:39;7.87;;;4.07;;
4486;SDS011;2256;48.740;9.106;2022-10-17T05:56:08;5.90;;;3.50;;
4486;SDS011;2256;48.740;9.106;2022-10-17T05:58:38;5.07;;;3.80;;
4486;SDS011;2256;48.740;9.106;2022-10-17T06:01:06;11.63;;;4.40;;
4486;SDS011;2256;48.740;9.106;2022-10-17T06:03:33;13.13;;;6.00;;
4486;SDS011;2256;48.740;9.106;2022-10-17T06:06:03;22.40;;;9.60;;
4486;SDS011;2256;48.740;9.106;2022-10-17T06:08:31;14.53;;;6.43;;
4486;SDS011;2256;48.740;9.106;2022-10-17T06:10:58;18.87;;;5.30;;
4486;SDS011;2256;48.740;9.106;2022-10-17T06:13:26;15.40;;;4.87;;
4486;SDS011;2256;48.740;9.106;2022-10-17T06:15:53;14.30;;;6.50;;
4486;SDS011;2256;48.740;9.106;2022-10-17T06:18:20;8.90;;;5.10;;
4486;SDS011;2256;48.740;9.106;2022-10-17T06:20:47;32.53;;;6.00;;
4486;SDS011;2256;48.740;9.106;2022-10-17T06:23:13;6.90;;;4.73;;
4486;SDS011;2256;48.740;9.106;2022-10-17T06:25:40;9.80;;;5.13;;
4486;SDS011;2256;48.740;9.106;2022-10-17T06:28:07;11.03;;;4.00;;
4486;SDS011;2256;48.740;9.106;2022-10-17T06:30:37;7.20;;;4.00;;
4486;SDS011;2256;48.740;9.106;2022-10-17T06:33:04;7.90;;;4.20;;
4486;SDS011;2256;48.740;9.106;2022-10-17T06:35:32;8.83;;;3.90;;
4486;SDS011;2256;48.740;9.106;2022-10-17T06:37:58;5.83;;;3.50;;
4486;SDS011;2256;48.740;9.106;2022-10-17T06:40:25;6.43;;;3.27;;
4486;SDS011;2256;48.740;9.106;2022-10-17T06:42:52;16.87;;;3.67;;
4486;SDS011;2256;48.740;9.106;2022-10-17T06:45:18;11.63;;;3.50;;
4486;SDS011;2256;48.740;9.106;2022-10-17T06:47:47;7.40;;;3.73;;
4486;SDS011;2256;48.740;9.106;2022-10-17T06:50:14;15.87;;;4.50;;
4486;SDS011;2256;48.740;9.106;2022-10-17T06:52:41;11.03;;;3.77;;
4486;SDS011;2256;48.740;9.106;2022-10-17T06:55:08;5.43;;;3.33;;
4486;SDS011;2256;48.740;9.106;2022-10-17T06:57:34;16.73;;;5.40;;
4486;SDS011;2256;48.740;9.106;2022-10-17T07:00:02;25.87;;;3.53;;
4486;SDS011;2256;48.740;9.106;2022-10-17T07:02:30;14.70;;;4.17;;
4486;SDS011;2256;48.740;9.106;2022-10-17T07:04:58;10.87;;;4.37;;
4486;SDS011;2256;48.740;9.106;2022-10-17T07:07:25;7.80;;;3.90;;
4486;SDS011;2256;48.740;9.106;2022-10-17T07:09:52;24.80;;;3.80;;
4486;SDS011;2256;48.740;9.106;2022-10-17T07:12:18;4.60;;;2.60;;
4486;SDS011;2256;48.740;9.106;2022-10-17T07:14:45;10.27;;;2.80;;
4486;SDS011;2256;48.740;9.106;2022-10-17T07:17:14;6.13;;;2.73;;
4486;SDS011;2256;48.740;9.106;2022-10-17T07:19:41;5.97;;;2.70;;
4486;SDS011;2256;48.740;9.106;2022-10-17T07:22:10;3.33;;;2.60;;
4486;SDS011;2256;48.740;9.106;2022-10-17T07:24:37;8.73;;;2.40;;
4486;SDS011;2256;48.740;9.106;2022-10-17T07:27:04;10.03;;;2.47;;
4486;SDS011;2256;48.740;9.106;2022-10-17T07:29:30;5.87;;;2.57;;
4486;SDS011;2256;48.740;9.106;2022-10-17T07:31:57;7.50;;;2.90;;
4486;SDS011;2256;48.740;9.106;2022-10-17T07:34:24;4.63;;;2.40;;
4486;SDS011;2256;48.740;9.106;2022-10-17T07:36:54;18.03;;;2.80;;
4486;SDS011;2256;48.740;9.106;2022-10-17T07:39:22;8.07;;;2.73;;
4486;SDS011;2256;48.740;9.106;2022-10-17T07:41:49;6.13;;;3.37;;
4486;SDS011;2256;48.740;9.106;2022-10-17T07:44:16;11.57;;;2.43;;
4486;SDS011;2256;48.740;9.106;2022-10-17T07:46:43;5.50;;;2.43;;
4486;SDS011;2256;48.740;9.106;2022-10-17T07:49:10;5.23;;;3.60;;
4486;SDS011;2256;48.740;9.106;2022-10-17T07:51:36;7.50;;;2.50;;
4486;SDS011;2256;48.740;9.106;2022-10-17T07:54:03;10.13;;;2.37;;
4486;SDS011;2256;48.740;9.106;2022-10-17T07:56:32;7.33;;;2.30;;
4486;SDS011;2256;48.740;9.106;2022-10-17T07:58:58;2.20;;;2.00;;
4486;SDS011;2256;48.740;9.106;2022-10-17T08:01:25;5.53;;;2.40;;
4486;SDS011;2256;48.740;9.106;2022-10-17T08:03:52;11.67;;;2.47;;
4486;SDS011;2256;48.740;9.106;2022-10-17T08:06:19;6.90;;;2.60;;
4486;SDS011;2256;48.740;9.106;2022-10-17T08:08:46;9.77;;;2.40;;
4486;SDS011;2256;48.740;9.106;2022-10-17T08:11:13;6.00;;;2.30;;
4486;SDS011;2256;48.740;9.106;2022-10-17T08:13:41;4.03;;;1.90;;
4486;SDS011;2256;48.740;9.106;2022-10-17T08:16:08;5.10;;;2.33;;
4486;SDS011;2256;48.740;9.106;2022-10-17T08:18:37;8.63;;;2.60;;
4486;SDS011;2256;48.740;9.106;2022-10-17T08:21:05;5.57;;;2.77;;
4486;SDS011;2256;48.740;9.106;2022-10-17T08:23:33;5.13;;;2.27;;
4486;SDS011;2256;48.740;9.106;2022-10-17T08:26:02;4.40;;;2.40;;
4486;SDS011;2256;48.740;9.106;2022-10-17T08:28:30;3.47;;;1.93;;
4486;SDS011;2256;48.740;9.106;2022-10-17T08:31:04;4.60;;;2.07;;
4486;SDS011;2256;48.740;9.106;2022-10-17T08:33:33;6.80;;;1.97;;
4486;SDS011;2256;48.740;9.106;2022-10-17T08:35:59;5.03;;;2.83;;
4486;SDS011;2256;48.740;9.106;2022-10-17T08:38:27;5.10;;;2.40;;
4486;SDS011;2256;48.740;9.106;2022-10-17T08:40:54;2.27;;;2.07;;
4486;SDS011;2256;48.740;9.106;2022-10-17T08:43:31;9.53;;;2.80;;
4486;SDS011;2256;48.740;9.106;2022-10-17T08:46:07;2.83;;;2.13;;
4486;SDS011;2256;48.740;9.106;2022-10-17T08:48:35;7.70;;;1.93;;
4486;SDS011;2256;48.740;9.106;2022-10-17T08:51:06;12.20;;;2.10;;
4486;SDS011;2256;48.740;9.106;2022-10-17T08:53:40;7.37;;;2.40;;
4486;SDS011;2256;48.740;9.106;2022-10-17T08:56:15;5.03;;;2.13;;
4486;SDS011;2256;48.740;9.106;2022-10-17T08:58:44;5.03;;;1.70;;
4486;SDS011;2256;48.740;9.106;2022-10-17T09:01:13;3.60;;;1.93;;
4486;SDS011;2256;48.740;9.106;2022-10-17T09:03:58;4.50;;;2.07;;
4486;SDS011;2256;48.740;9.106;2022-10-17T09:06:43;10.33;;;2.00;;
4486;SDS011;2256;48.740;9.106;2022-10-17T09:09:16;3.30;;;1.93;;
4486;SDS011;2256;48.740;9.106;2022-10-17T09:11:54;1.90;;;1.80;;
4486;SDS011;2256;48.740;9.106;2022-10-17T09:17:37;3.10;;;2.70;;
4486;SDS011;2256;48.740;9.106;2022-10-17T09:20:11;5.57;;;2.20;;
4486;SDS011;2256;48.740;9.106;2022-10-17T09:22:43;13.67;;;2.13;;
4486;SDS011;2256;48.740;9.106;2022-10-17T09:25:15;3.50;;;1.87;;
4486;SDS011;2256;48.740;9.106;2022-10-17T09:27:44;6.13;;;1.90;;
4486;SDS011;2256;48.740;9.106;2022-10-17T09:30:22;7.10;;;2.20;;
4486;SDS011;2256;48.740;9.106;2022-10-17T09:32:57;6.80;;;2.10;;
4486;SDS011;2256;48.740;9.106;2022-10-17T09:35:24;2.23;;;2.03;;
4486;SDS011;2256;48.740;9.106;2022-10-17T09:37:52;7.50;;;2.40;;
4486;SDS011;2256;48.740;9.106;2022-10-17T09:40:20;3.10;;;1.97;;
4486;SDS011;2256;48.740;9.106;2022-10-17T09:42:50;6.97;;;2.43;;
4486;SDS011;2256;48.740;9.106;2022-10-17T09:45:18;6.67;;;2.13;;
4486;SDS011;2256;48.740;9.106;2022-10-17T09:47:52;13.00;;;1.97;;
4486;SDS011;2256;48.740;9.106;2022-10-17T09:50:26;10.00;;;2.20;;
4486;SDS011;2256;48.740;9.106;2022-10-17T09:52:55;3.93;;;2.23;;
4486;SDS011;2256;48.740;9.106;2022-10-17T09:55:28;8.23;;;2.40;;
4486;SDS011;2256;48.740;9.106;2022-10-17T09:58:03;18.30;;;2.73;;
4486;SDS011;2256;48.740;9.106;2022-10-17T10:00:32;3.57;;;1.90;;
4486;SDS011;2256;48.740;9.106;2022-10-17T10:03:16;26.73;;;3.23;;
4486;SDS011;2256;48.740;9.106;2022-10-17T10:05:57;4.77;;;2.60;;
4486;SDS011;2256;48.740;9.106;2022-10-17T10:08:26;12.43;;;2.30;;
4486;SDS011;2256;48.740;9.106;2022-10-17T10:11:01;4.90;;;2.57;;
4486;SDS011;2256;48.740;9.106;2022-10-17T10:13:30;7.00;;;2.43;;
4486;SDS011;2256;48.740;9.106;2022-10-17T10:16:15;3.03;;;1.90;;
4486;SDS011;2256;48.740;9.106;2022-10-17T10:18:46;6.60;;;2.43;;
4486;SDS011;2256;48.740;9.106;2022-10-17T10:21:14;2.83;;;1.80;;
4486;SDS011;2256;48.740;9.106;2022-10-17T10:23:42;2.63;;;2.10;;
4486;SDS011;2256;48.740;9.106;2022-10-17T10:26:20;3.90;;;1.77;;
4486;SDS011;2256;48.740;9.106;2022-10-17T10:28:50;5.20;;;2.53;;
4486;SDS011;2256;48.740;9.106;2022-10-17T10:31:24;4.50;;;2.20;;
4486;SDS011;2256;48.740;9.106;2022-10-17T10:33:54;10.70;;;2.30;;
4486;SDS011;2256;48.740;9.106;2022-10-17T10:36:21;3.63;;;2.40;;
4486;SDS011;2256;48.740;9.106;2022-10-17T10:38:51;4.07;;;2.30;;
4486;SDS011;2256;48.740;9.106;2022-10-17T10:41:20;3.50;;;2.20;;
4486;SDS011;2256;48.740;9.106;2022-10-17T10:43:47;3.10;;;2.20;;
4486;SDS011;2256;48.740;9.106;2022-10-17T10:46:17;5.10;;;2.40;;
4486;SDS011;2256;48.740;9.106;2022-10-17T10:48:52;3.53;;;2.47;;
4486;SDS011;2256;48.740;9.106;2022-10-17T10:51:25;5.13;;;2.03;;
4486;SDS011;2256;48.740;9.106;2022-10-17T10:53:58;9.80;;;1.80;;
4486;SDS011;2256;48.740;9.106;2022-10-17T10:56:30;8.17;;;2.10;;
4486;SDS011;2256;48.740;9.106;2022-10-17T10:59:03;4.10;;;2.10;;
4486;SDS011;2256;48.740;9.106;2022-10-17T11:01:37;5.37;;;2.20;;
4486;SDS011;2256;48.740;9.106;2022-10-17T11:04:16;4.50;;;1.73;;
4486;SDS011;2256;48.740;9.106;2022-10-17T11:06:49;6.90;;;2.20;;
4486;SDS011;2256;48.740;9.106;2022-10-17T11:09:25;3.53;;;1.93;;
4486;SDS011;2256;48.740;9.106;2022-10-17T11:12:00;8.93;;;2.27;;
4486;SDS011;2256;48.740;9.106;2022-10-17T11:14:37;9.70;;;2.23;;
4486;SDS011;2256;48.740;9.106;2022-10-17T11:17:11;2.03;;;1.60;;
4486;SDS011;2256;48.740;9.106;2022-10-17T11:19:45;3.70;;;1.90;;
4486;SDS011;2256;48.740;9.106;2022-10-17T11:22:18;3.13;;;2.10;;
4486;SDS011;2256;48.740;9.106;2022-10-17T11:24:53;8.37;;;1.80;;
4486;SDS011;2256;48.740;9.106;2022-10-17T11:27:24;3.63;;;1.77;;
4486;SDS011;2256;48.740;9.106;2022-10-17T11:29:52;6.90;;;1.90;;
4486;SDS011;2256;48.740;9.106;2022-10-17T11:32:22;12.33;;;1.80;;
4486;SDS011;2256;48.740;9.106;2022-10-17T11:34:55;6.20;;;1.90;;
4486;SDS011;2256;48.740;9.106;2022-10-17T11:37:27;8.67;;;2.20;;
4486;SDS011;2256;48.740;9.106;2022-10-17T11:39:59;6.20;;;2.30;;
4486;SDS011;2256;48.740;9.106;2022-10-17T11:42:30;10.23;;;2.20;;
4486;SDS011;2256;48.740;9.106;2022-10-17T11:45:03;3.87;;;1.70;;
4486;SDS011;2256;48.740;9.106;2022-10-17T11:47:36;5.70;;;2.07;;
4486;SDS011;2256;48.740;9.106;2022-10-17T11:50:15;5.33;;;2.20;;
4486;SDS011;2256;48.740;9.106;2022-10-17T11:52:50;5.93;;;2.00;;
4486;SDS011;2256;48.740;9.106;2022-10-17T11:55:22;14.20;;;3.17;;
4486;SDS011;2256;48.740;9.106;2022-10-17T12:00:52;6.97;;;1.93;;
4486;SDS011;2256;48.740;9.106;2022-10-17T12:03:27;9.70;;;2.30;;
4486;SDS011;2256;48.740;9.106;2022-10-17T12:06:02;4.33;;;1.80;;
4486;SDS011;2256;48.740;9.106;2022-10-17T12:08:38;9.60;;;2.80;;
4486;SDS011;2256;48.740;9.106;2022-10-17T12:11:10;6.97;;;2.23;;
4486;SDS011;2256;48.740;9.106;2022-10-17T12:13:48;11.13;;;2.10;;
4486;SDS011;2256;48.740;9.106;2022-10-17T12:16:35;7.07;;;2.73;;
4486;SDS011;2256;48.740;9.106;2022-10-17T12:19:31;7.80;;;2.33;;
4486;SDS011;2256;48.740;9.106;2022-10-17T12:22:16;4.70;;;2.20;;
4486;SDS011;2256;48.740;9.106;2022-10-17T12:24:51;5.30;;;1.83;;
4486;SDS011;2256;48.740;9.106;2022-10-17T12:27:21;7.57;;;1.90;;
4486;SDS011;2256;48.740;9.106;2022-10-17T12:29:49;3.50;;;2.00;;
4486;SDS011;2256;48.740;9.106;2022-10-17T12:32:23;4.30;;;2.03;;
4486;SDS011;2256;48.740;9.106;2022-10-17T12:34:50;8.00;;;2.10;;
4486;SDS011;2256;48.740;9.106;2022-10-17T12:43:32;10.60;;;2.17;;
4486;SDS011;2256;48.740;9.106;2022-10-17T12:46:11;4.93;;;2.20;;
4486;SDS011;2256;48.740;9.106;2022-10-17T12:51:29;4.03;;;2.10;;
4486;SDS011;2256;48.740;9.106;2022-10-17T12:54:37;6.33;;;2.20;;
4486;SDS011;2256;48.740;9.106;2022-10-17T12:57:13;2.60;;;1.97;;
4486;SDS011;2256;48.740;9.106;2022-10-17T12:59:45;7.93;;;2.20;;
4486;SDS011;2256;48.740;9.106;2022-10-17T13:02:15;12.30;;;2.23;;
4486;SDS011;2256;48.740;9.106;2022-10-17T13:04:44;2.13;;;1.73;;
4486;SDS011;2256;48.740;9.106;2022-10-17T13:07:15;6.80;;;1.90;;
4486;SDS011;2256;48.740;9.106;2022-10-17T13:09:44;7.73;;;2.13;;
4486;SDS011;2256;48.740;9.106;2022-10-17T13:12:12;2.23;;;1.90;;
4486;SDS011;2256;48.740;9.106;2022-10-17T13:14:44;3.90;;;1.60;;
4486;SDS011;2256;48.740;9.106;2022-10-17T13:17:19;5.03;;;2.10;;
4486;SDS011;2256;48.740;9.106;2022-10-17T13:19:49;4.63;;;2.20;;
4486;SDS011;2256;48.740;9.106;2022-10-17T13:22:17;2.17;;;1.50;;
4486;SDS011;2256;48.740;9.106;2022-10-17T13:24:45;4.00;;;2.20;;
4486;SDS011;2256;48.740;9.106;2022-10-17T13:27:23;7.27;;;1.80;;
4486;SDS011;2256;48.740;9.106;2022-10-17T13:29:53;6.20;;;2.00;;
4486;SDS011;2256;48.740;9.106;2022-10-17T13:32:21;9.03;;;2.30;;
4486;SDS011;2256;48.740;9.106;2022-10-17T13:37:41;3.80;;;2.37;;
4486;SDS011;2256;48.740;9.106;2022-10-17T13:40:14;4.77;;;2.10;;
4486;SDS011;2256;48.740;9.106;2022-10-17T13:42:44;9.13;;;2.50;;
4486;SDS011;2256;48.740;9.106;2022-10-17T13:45:15;3.73;;;2.40;;
4486;SDS011;2256;48.740;9.106;2022-10-17T13:47:45;7.93;;;2.57;;
4486;SDS011;2256;48.740;9.106;2022-10-17T13:50:17;7.70;;;2.57;;
4486;SDS011;2256;48.740;9.106;2022-10-17T13:52:48;7.10;;;2.40;;
4486;SDS011;2256;48.740;9.106;2022-10-17T13:55:15;8.57;;;2.80;;
4486;SDS011;2256;48.740;9.106;2022-10-17T13:57:45;4.90;;;2.97;;
4486;SDS011;2256;48.740;9.106;2022-10-17T14:00:15;6.20;;;2.80;;
4486;SDS011;2256;48.740;9.106;2022-10-17T14:02:45;3.30;;;2.20;;
4486;SDS011;2256;48.740;9.106;2022-10-17T14:05:13;5.30;;;2.43;;
4486;SDS011;2256;48.740;9.106;2022-10-17T14:07:42;7.63;;;2.20;;
4486;SDS011;2256;48.740;9.106;2022-10-17T14:10:18;4.53;;;2.43;;
4486;SDS011;2256;48.740;9.106;2022-10-17T14:12:48;3.80;;;2.20;;
4486;SDS011;2256;48.740;9.106;2022-10-17T14:15:16;7.47;;;2.70;;
4486;SDS011;2256;48.740;9.106;2022-10-17T14:17:43;4.00;;;2.13;;
4486;SDS011;2256;48.740;9.106;2022-10-17T14:20:16;10.83;;;2.20;;
4486;SDS011;2256;48.740;9.106;2022-10-17T14:22:45;7.47;;;1.97;;
4486;SDS011;2256;48.740;9.106;2022-10-17T14:25:25;5.83;;;2.00;;
4486;SDS011;2256;48.740;9.106;2022-10-17T14:27:56;21.50;;;2.27;;
4486;SDS011;2256;48.740;9.106;2022-10-17T14:30:32;4.97;;;2.37;;
4486;SDS011;2256;48.740;9.106;2022-10-17T14:33:01;13.57;;;2.50;;
4486;SDS011;2256;48.740;9.106;2022-10-17T14:35:31;3.60;;;2.30;;
4486;SDS011;2256;48.740;9.106;2022-10-17T14:37:59;7.43;;;2.50;;
4486;SDS011;2256;48.740;9.106;2022-10-17T14:40:28;4.40;;;2.40;;
4486;SDS011;2256;48.740;9.106;2022-10-17T14:43:01;12.87;;;2.27;;
4486;SDS011;2256;48.740;9.106;2022-10-17T14:45:31;10.20;;;2.37;;
4486;SDS011;2256;48.740;9.106;2022-10-17T14:48:00;10.10;;;2.47;;
4486;SDS011;2256;48.740;9.106;2022-10-17T14:50:30;16.97;;;3.63;;
4486;SDS011;2256;48.740;9.106;2022-10-17T14:53:01;6.23;;;2.30;;
4486;SDS011;2256;48.740;9.106;2022-10-17T14:55:30;4.27;;;1.97;;
4486;SDS011;2256;48.740;9.106;2022-10-17T14:57:59;7.53;;;2.43;;
4486;SDS011;2256;48.740;9.106;2022-10-17T15:00:27;5.90;;;2.10;;
4486;SDS011;2256;48.740;9.106;2022-10-17T15:02:54;5.13;;;2.13;;
4486;SDS011;2256;48.740;9.106;2022-10-17T15:05:21;5.57;;;2.27;;
4486;SDS011;2256;48.740;9.106;2022-10-17T15:07:49;4.60;;;2.47;;
4486;SDS011;2256;48.740;9.106;2022-10-17T15:10:21;2.83;;;2.10;;
4486;SDS011;2256;48.740;9.106;2022-10-17T15:12:50;8.40;;;2.60;;
4486;SDS011;2256;48.740;9.106;2022-10-17T15:15:18;6.07;;;2.20;;
4486;SDS011;2256;48.740;9.106;2022-10-17T15:17:45;10.17;;;2.50;;
4486;SDS011;2256;48.740;9.106;2022-10-17T15:20:13;3.07;;;1.90;;
4486;SDS011;2256;48.740;9.106;2022-10-17T15:22:43;7.67;;;2.57;;
4486;SDS011;2256;48.740;9.106;2022-10-17T15:25:10;11.57;;;2.40;;
4486;SDS011;2256;48.740;9.106;2022-10-17T15:27:36;10.93;;;2.70;;
4486;SDS011;2256;48.740;9.106;2022-10-17T15:30:05;6.60;;;2.70;;
4486;SDS011;2256;48.740;9.106;2022-10-17T15:32:43;4.23;;;2.23;;
4486;SDS011;2256;48.740;9.106;2022-10-17T15:35:10;13.03;;;2.73;;
4486;SDS011;2256;48.740;9.106;2022-10-17T15:37:37;9.67;;;2.73;;
4486;SDS011;2256;48.740;9.106;2022-10-17T15:40:04;3.60;;;2.37;;
4486;SDS011;2256;48.740;9.106;2022-10-17T15:42:32;3.33;;;3.00;;
4486;SDS011;2256;48.740;9.106;2022-10-17T15:44:59;6.43;;;2.60;;
4486;SDS011;2256;48.740;9.106;2022-10-17T15:47:26;8.00;;;3.10;;
4486;SDS011;2256;48.740;9.106;2022-10-17T15:49:58;15.43;;;2.97;;
4486;SDS011;2256;48.740;9.106;2022-10-17T15:52:25;6.10;;;3.47;;